F/V Le Dolmen — FHMD — position and weather

sailwx.info

Track history (hours):
 
Tides and Currents Weather Stations Pressure Air Temp Water Temp Dewpoint Dewpoint Depression Visibility Wind Speed Wind Dir Waves Ship Positions

F/V Le Dolmen

Last reported at 2016-Feb-10 21:32 UTC. Time now 2016-Feb-11 15:08 UTC.
Position N 47°16' W 002°59'.

Length 18 m.

Type: Fishing. MMSI: 228374000.

Date/timePositionNaut miles runAvg speedWind from/ knotsBaromVisibWave heightAir tempDewpointWater temp
2016-Feb-10 21:32N 47°16' W 002°59'9 9.6
2016-Feb-10 20:34N 47°24' W 003°07'9 9.0
2016-Feb-10 19:33N 47°31' W 003°13'10 9.7
2016-Feb-10 18:33N 47°39' W 003°21'4 4.3
2016-Feb-10 17:33N 47°44' W 003°22'0 0.0
2016-Feb-10 16:33N 47°44' W 003°22'2 1.9
2016-Feb-10 15:33N 47°42' W 003°22'1 1.0
2016-Feb-10 14:34N 47°41' W 003°23'3 2.6
2016-Feb-10 13:33N 47°44' W 003°22'0 0.0
2016-Feb-10 12:33N 47°44' W 003°22'0 0.0
2016-Feb-10 11:33N 47°44' W 003°22'0 0.0
2016-Feb-10 10:33N 47°44' W 003°22'0 0.0
2016-Feb-10 09:33N 47°44' W 003°22'0 0.0
2016-Feb-10 08:33N 47°44' W 003°22'0 0.1
2016-Feb-10 07:33N 47°44' W 003°22'0 0.0
2016-Feb-10 06:33N 47°44' W 003°22'0 0.1
2016-Feb-10 05:33N 47°44' W 003°22'0 0.0
2016-Feb-09 09:33N 47°44' W 003°22'0 0.0
2016-Feb-09 08:28N 47°44' W 003°22'0 0.0
2016-Feb-08 17:20N 47°44' W 003°22'0 0.0
2016-Feb-08 16:19N 47°44' W 003°22'0 0.0
2016-Feb-08 15:29N 47°44' W 003°22'0 0.0
2016-Feb-08 13:23N 47°44' W 003°22'0 0.0
2016-Feb-08 12:12N 47°44' W 003°22'0 0.0
2016-Feb-08 11:21N 47°44' W 003°22'0 0.0
2016-Feb-08 10:19N 47°44' W 003°22'0 0.0
2016-Feb-08 09:32N 47°44' W 003°22'0 0.0
2016-Feb-08 08:33N 47°44' W 003°22'0 0.0
2016-Feb-08 07:30N 47°44' W 003°22'0 0.0
2016-Feb-06 09:20N 47°44' W 003°22'0 0.0
2016-Feb-06 06:33N 47°44' W 003°22'0 0.0
2016-Feb-06 05:34N 47°44' W 003°22'0 0.0
2016-Feb-06 04:33N 47°44' W 003°22'0 0.0
2016-Feb-06 03:33N 47°44' W 003°22'0 0.1
2016-Feb-06 02:33N 47°44' W 003°22'6 6.0
2016-Feb-06 01:33N 47°38' W 003°22'9 9.4
2016-Feb-06 00:33N 47°28' W 003°21'9 9.1
2016-Feb-05 23:33N 47°19' W 003°19'30 1.4
2016-Feb-05 01:33N 47°11' W 002°36'9 8.7
2016-Feb-05 00:33N 47°19' W 002°32'2 1.5
2016-Feb-04 23:32N 47°18' W 002°31'4 4.0
2016-Feb-04 22:33N 47°16' W 002°36'8 8.3
2016-Feb-04 21:33N 47°11' W 002°45'  
2016-Feb-02 03:16N 47°13' W 002°42'5 7.0
2016-Feb-02 02:33N 47°16' W 002°36'4 2.9
2016-Feb-02 01:04N 47°18' W 002°31'0 0.0
2016-Feb-01 23:10N 47°18' W 002°31'3 5.6
2016-Feb-01 22:33N 47°17' W 002°36'9 9.0
2016-Feb-01 21:33N 47°10' W 002°45'13 2.7
2016-Feb-01 16:32N 47°00' W 002°57'3 2.8
2016-Feb-01 15:23N 47°03' W 002°60'4 2.9
2016-Feb-01 14:04N 47°07' W 003°01'1 2.3
2016-Feb-01 13:30N 47°05' W 003°02'3 0.7
2016-Feb-01 08:32N 47°03' W 002°58'3 2.6
2016-Feb-01 07:32N 47°01' W 002°57'  
Track history (hours):
 
Tides and Currents Weather Stations Pressure Air Temp Water Temp Dewpoint Dewpoint Depression Visibility Wind Speed Wind Dir Waves Ship Positions

F/V Le Dolmen

Last reported at 2016-Feb-10 21:32 UTC. Time now 2016-Feb-11 15:08 UTC.
Position N 47°16' W 002°59'.

Length 18 m.

Type: Fishing. MMSI: 228374000.

Date/timePositionNaut miles runAvg speedWind from/ knotsBaromVisibWave heightAir tempDewpointWater temp
2016-Feb-10 21:32N 47°16' W 002°59'9 9.6
2016-Feb-10 20:34N 47°24' W 003°07'9 9.0
2016-Feb-10 19:33N 47°31' W 003°13'10 9.7
2016-Feb-10 18:33N 47°39' W 003°21'4 4.3
2016-Feb-10 17:33N 47°44' W 003°22'0 0.0
2016-Feb-10 16:33N 47°44' W 003°22'2 1.9
2016-Feb-10 15:33N 47°42' W 003°22'1 1.0
2016-Feb-10 14:34N 47°41' W 003°23'3 2.6
2016-Feb-10 13:33N 47°44' W 003°22'0 0.0
2016-Feb-10 12:33N 47°44' W 003°22'0 0.0
2016-Feb-10 11:33N 47°44' W 003°22'0 0.0
2016-Feb-10 10:33N 47°44' W 003°22'0 0.0
2016-Feb-10 09:33N 47°44' W 003°22'0 0.0
2016-Feb-10 08:33N 47°44' W 003°22'0 0.1
2016-Feb-10 07:33N 47°44' W 003°22'0 0.0
2016-Feb-10 06:33N 47°44' W 003°22'0 0.1
2016-Feb-10 05:33N 47°44' W 003°22'0 0.0
2016-Feb-09 09:33N 47°44' W 003°22'0 0.0
2016-Feb-09 08:28N 47°44' W 003°22'0 0.0
2016-Feb-08 17:20N 47°44' W 003°22'0 0.0
2016-Feb-08 16:19N 47°44' W 003°22'0 0.0
2016-Feb-08 15:29N 47°44' W 003°22'0 0.0
2016-Feb-08 13:23N 47°44' W 003°22'0 0.0
2016-Feb-08 12:12N 47°44' W 003°22'0 0.0
2016-Feb-08 11:21N 47°44' W 003°22'0 0.0
2016-Feb-08 10:19N 47°44' W 003°22'0 0.0
2016-Feb-08 09:32N 47°44' W 003°22'0 0.0
2016-Feb-08 08:33N 47°44' W 003°22'0 0.0
2016-Feb-08 07:30N 47°44' W 003°22'0 0.0
2016-Feb-06 09:20N 47°44' W 003°22'0 0.0
2016-Feb-06 06:33N 47°44' W 003°22'0 0.0
2016-Feb-06 05:34N 47°44' W 003°22'0 0.0
2016-Feb-06 04:33N 47°44' W 003°22'0 0.0
2016-Feb-06 03:33N 47°44' W 003°22'0 0.1
2016-Feb-06 02:33N 47°44' W 003°22'6 6.0
2016-Feb-06 01:33N 47°38' W 003°22'9 9.4
2016-Feb-06 00:33N 47°28' W 003°21'9 9.1
2016-Feb-05 23:33N 47°19' W 003°19'30 1.4
2016-Feb-05 01:33N 47°11' W 002°36'9 8.7
2016-Feb-05 00:33N 47°19' W 002°32'2 1.5
2016-Feb-04 23:32N 47°18' W 002°31'4 4.0
2016-Feb-04 22:33N 47°16' W 002°36'8 8.3
2016-Feb-04 21:33N 47°11' W 002°45'  
2016-Feb-02 03:16N 47°13' W 002°42'5 7.0
2016-Feb-02 02:33N 47°16' W 002°36'4 2.9
2016-Feb-02 01:04N 47°18' W 002°31'0 0.0
2016-Feb-01 23:10N 47°18' W 002°31'3 5.6
2016-Feb-01 22:33N 47°17' W 002°36'9 9.0
2016-Feb-01 21:33N 47°10' W 002°45'13 2.7
2016-Feb-01 16:32N 47°00' W 002°57'3 2.8
2016-Feb-01 15:23N 47°03' W 002°60'4 2.9
2016-Feb-01 14:04N 47°07' W 003°01'1 2.3
2016-Feb-01 13:30N 47°05' W 003°02'3 0.7
2016-Feb-01 08:32N 47°03' W 002°58'3 2.6
2016-Feb-01 07:32N 47°01' W 002°57'  

Dump ship's entire track history